sensor_id;sensor_type;location;lat;lon;timestamp;pressure;altitude;pressure_sealevel;temperature;humidity
29815;BME280;16708;50.426;7.664;2023-04-25T00:04:18;981.19;;;6.05;100.00
29815;BME280;16708;50.426;7.664;2023-04-25T00:09:12;981.28;;;5.94;100.00
29815;BME280;16708;50.426;7.664;2023-04-25T00:14:06;981.30;;;5.89;100.00
29815;BME280;16708;50.426;7.664;2023-04-25T00:19:01;981.22;;;5.86;100.00
29815;BME280;16708;50.426;7.664;2023-04-25T00:23:55;981.24;;;5.87;100.00
29815;BME280;16708;50.426;7.664;2023-04-25T00:28:48;981.26;;;5.84;100.00
29815;BME280;16708;50.426;7.664;2023-04-25T00:33:42;981.23;;;5.71;100.00
29815;BME280;16708;50.426;7.664;2023-04-25T00:38:35;981.27;;;5.69;100.00
29815;BME280;16708;50.426;7.664;2023-04-25T00:43:30;981.33;;;5.61;100.00
29815;BME280;16708;50.426;7.664;2023-04-25T00:48:24;981.33;;;5.54;100.00
29815;BME280;16708;50.426;7.664;2023-04-25T00:53:17;981.25;;;5.39;100.00
29815;BME280;16708;50.426;7.664;2023-04-25T00:58:11;981.16;;;5.26;100.00
29815;BME280;16708;50.426;7.664;2023-04-25T01:03:06;981.15;;;5.05;100.00
29815;BME280;16708;50.426;7.664;2023-04-25T01:08:00;981.20;;;4.89;100.00
29815;BME280;16708;50.426;7.664;2023-04-25T01:12:54;981.30;;;4.65;100.00
29815;BME280;16708;50.426;7.664;2023-04-25T01:17:48;981.37;;;4.55;100.00
29815;BME280;16708;50.426;7.664;2023-04-25T01:22:42;981.39;;;4.47;100.00
29815;BME280;16708;50.426;7.664;2023-04-25T01:27:36;981.37;;;4.43;100.00
29815;BME280;16708;50.426;7.664;2023-04-25T01:32:28;981.26;;;4.33;100.00
29815;BME280;16708;50.426;7.664;2023-04-25T01:37:22;981.26;;;4.32;100.00
29815;BME280;16708;50.426;7.664;2023-04-25T01:42:14;981.32;;;4.26;100.00
29815;BME280;16708;50.426;7.664;2023-04-25T01:47:08;981.34;;;4.16;100.00
29815;BME280;16708;50.426;7.664;2023-04-25T01:52:02;981.36;;;4.06;100.00
29815;BME280;16708;50.426;7.664;2023-04-25T01:56:56;981.39;;;4.03;100.00
29815;BME280;16708;50.426;7.664;2023-04-25T02:01:50;981.41;;;3.92;100.00
29815;BME280;16708;50.426;7.664;2023-04-25T02:06:43;981.38;;;3.89;100.00
29815;BME280;16708;50.426;7.664;2023-04-25T02:11:37;981.38;;;3.85;100.00
29815;BME280;16708;50.426;7.664;2023-04-25T02:16:31;981.32;;;3.82;100.00
29815;BME280;16708;50.426;7.664;2023-04-25T02:21:24;981.33;;;3.81;100.00
29815;BME280;16708;50.426;7.664;2023-04-25T02:26:19;981.43;;;3.79;100.00
29815;BME280;16708;50.426;7.664;2023-04-25T02:31:13;981.39;;;3.80;100.00
29815;BME280;16708;50.426;7.664;2023-04-25T02:36:07;981.40;;;3.77;100.00
29815;BME280;16708;50.426;7.664;2023-04-25T02:41:00;981.39;;;3.72;100.00
29815;BME280;16708;50.426;7.664;2023-04-25T02:45:54;981.33;;;3.57;100.00
29815;BME280;16708;50.426;7.664;2023-04-25T02:50:47;981.48;;;3.48;100.00
29815;BME280;16708;50.426;7.664;2023-04-25T02:55:41;981.46;;;3.40;100.00
29815;BME280;16708;50.426;7.664;2023-04-25T03:00:36;981.53;;;3.40;100.00
29815;BME280;16708;50.426;7.664;2023-04-25T03:05:29;981.53;;;3.34;100.00
29815;BME280;16708;50.426;7.664;2023-04-25T03:10:23;981.57;;;3.30;100.00
29815;BME280;16708;50.426;7.664;2023-04-25T03:15:17;981.67;;;3.43;100.00
29815;BME280;16708;50.426;7.664;2023-04-25T03:20:12;981.63;;;3.42;100.00
29815;BME280;16708;50.426;7.664;2023-04-25T03:25:05;981.53;;;3.36;100.00
29815;BME280;16708;50.426;7.664;2023-04-25T03:29:57;981.55;;;3.39;100.00
29815;BME280;16708;50.426;7.664;2023-04-25T03:34:51;981.62;;;3.36;100.00
29815;BME280;16708;50.426;7.664;2023-04-25T03:39:45;981.60;;;3.35;100.00
29815;BME280;16708;50.426;7.664;2023-04-25T03:44:39;981.71;;;3.41;100.00
29815;BME280;16708;50.426;7.664;2023-04-25T03:49:33;981.71;;;3.49;100.00
29815;BME280;16708;50.426;7.664;2023-04-25T03:54:27;981.67;;;3.61;100.00
29815;BME280;16708;50.426;7.664;2023-04-25T03:59:21;981.66;;;3.79;100.00
29815;BME280;16708;50.426;7.664;2023-04-25T04:04:18;981.66;;;3.87;100.00
29815;BME280;16708;50.426;7.664;2023-04-25T04:09:09;981.64;;;3.87;100.00
29815;BME280;16708;50.426;7.664;2023-04-25T04:14:03;981.64;;;3.92;100.00
29815;BME280;16708;50.426;7.664;2023-04-25T04:18:55;981.76;;;3.94;100.00
29815;BME280;16708;50.426;7.664;2023-04-25T04:23:50;981.83;;;3.94;100.00
29815;BME280;16708;50.426;7.664;2023-04-25T04:28:42;981.81;;;3.94;100.00
29815;BME280;16708;50.426;7.664;2023-04-25T04:33:36;981.82;;;4.06;100.00
29815;BME280;16708;50.426;7.664;2023-04-25T04:38:30;981.85;;;4.25;100.00
29815;BME280;16708;50.426;7.664;2023-04-25T04:43:25;981.79;;;4.40;100.00
29815;BME280;16708;50.426;7.664;2023-04-25T04:48:19;981.82;;;4.46;100.00
29815;BME280;16708;50.426;7.664;2023-04-25T04:53:13;981.86;;;4.60;100.00
29815;BME280;16708;50.426;7.664;2023-04-25T04:58:08;981.89;;;4.80;100.00
29815;BME280;16708;50.426;7.664;2023-04-25T05:03:00;982.01;;;4.88;100.00
29815;BME280;16708;50.426;7.664;2023-04-25T05:07:54;982.02;;;4.85;100.00
29815;BME280;16708;50.426;7.664;2023-04-25T05:12:49;981.97;;;4.73;100.00
29815;BME280;16708;50.426;7.664;2023-04-25T05:17:43;981.99;;;4.94;100.00
29815;BME280;16708;50.426;7.664;2023-04-25T05:22:38;981.98;;;4.91;100.00
29815;BME280;16708;50.426;7.664;2023-04-25T05:27:32;982.07;;;4.94;100.00
29815;BME280;16708;50.426;7.664;2023-04-25T05:32:26;982.08;;;5.06;100.00
29815;BME280;16708;50.426;7.664;2023-04-25T05:37:21;982.01;;;5.63;100.00
29815;BME280;16708;50.426;7.664;2023-04-25T05:42:14;981.89;;;5.56;100.00
29815;BME280;16708;50.426;7.664;2023-04-25T05:47:09;981.94;;;5.53;100.00
29815;BME280;16708;50.426;7.664;2023-04-25T05:52:03;981.99;;;5.56;100.00
29815;BME280;16708;50.426;7.664;2023-04-25T05:56:57;982.03;;;5.71;100.00
29815;BME280;16708;50.426;7.664;2023-04-25T06:01:51;982.11;;;5.71;100.00
29815;BME280;16708;50.426;7.664;2023-04-25T06:06:45;982.16;;;5.63;100.00
29815;BME280;16708;50.426;7.664;2023-04-25T06:11:39;982.25;;;6.01;100.00
29815;BME280;16708;50.426;7.664;2023-04-25T06:16:33;982.26;;;6.22;100.00
29815;BME280;16708;50.426;7.664;2023-04-25T06:21:27;982.26;;;5.71;100.00
29815;BME280;16708;50.426;7.664;2023-04-25T06:26:21;982.37;;;5.87;100.00
29815;BME280;16708;50.426;7.664;2023-04-25T06:31:15;982.35;;;5.71;100.00
29815;BME280;16708;50.426;7.664;2023-04-25T06:36:09;982.46;;;5.69;100.00
29815;BME280;16708;50.426;7.664;2023-04-25T06:41:03;982.32;;;5.99;100.00
29815;BME280;16708;50.426;7.664;2023-04-25T06:45:57;982.48;;;6.07;100.00
29815;BME280;16708;50.426;7.664;2023-04-25T06:50:52;982.50;;;6.48;100.00
29815;BME280;16708;50.426;7.664;2023-04-25T06:55:46;982.52;;;6.81;100.00
29815;BME280;16708;50.426;7.664;2023-04-25T07:00:40;982.51;;;6.69;100.00
29815;BME280;16708;50.426;7.664;2023-04-25T07:05:34;982.64;;;7.02;100.00
29815;BME280;16708;50.426;7.664;2023-04-25T07:10:28;982.67;;;7.10;100.00
29815;BME280;16708;50.426;7.664;2023-04-25T07:15:22;982.68;;;6.98;100.00
29815;BME280;16708;50.426;7.664;2023-04-25T07:20:16;982.76;;;6.92;100.00
29815;BME280;16708;50.426;7.664;2023-04-25T07:25:10;982.74;;;7.05;100.00
29815;BME280;16708;50.426;7.664;2023-04-25T07:30:04;982.77;;;7.62;100.00
29815;BME280;16708;50.426;7.664;2023-04-25T07:34:59;982.71;;;7.87;100.00
29815;BME280;16708;50.426;7.664;2023-04-25T07:39:53;982.79;;;7.90;100.00
29815;BME280;16708;50.426;7.664;2023-04-25T07:44:48;982.68;;;8.21;100.00
29815;BME280;16708;50.426;7.664;2023-04-25T07:49:45;982.74;;;8.14;100.00
29815;BME280;16708;50.426;7.664;2023-04-25T07:54:37;982.85;;;8.20;100.00
29815;BME280;16708;50.426;7.664;2023-04-25T07:59:32;982.91;;;8.37;100.00
29815;BME280;16708;50.426;7.664;2023-04-25T08:04:26;983.08;;;8.25;100.00
29815;BME280;16708;50.426;7.664;2023-04-25T08:09:20;983.08;;;8.58;100.00
29815;BME280;16708;50.426;7.664;2023-04-25T08:14:14;983.14;;;8.68;100.00
29815;BME280;16708;50.426;7.664;2023-04-25T08:19:09;983.13;;;8.61;100.00
29815;BME280;16708;50.426;7.664;2023-04-25T08:24:03;983.14;;;9.29;100.00
29815;BME280;16708;50.426;7.664;2023-04-25T08:28:58;983.18;;;8.88;100.00
29815;BME280;16708;50.426;7.664;2023-04-25T08:33:52;983.29;;;9.01;100.00
29815;BME280;16708;50.426;7.664;2023-04-25T08:38:47;983.36;;;9.26;100.00
29815;BME280;16708;50.426;7.664;2023-04-25T08:43:41;983.37;;;9.31;100.00
29815;BME280;16708;50.426;7.664;2023-04-25T08:48:35;983.35;;;9.46;100.00
29815;BME280;16708;50.426;7.664;2023-04-25T08:53:29;983.42;;;9.72;100.00
29815;BME280;16708;50.426;7.664;2023-04-25T08:58:23;983.58;;;9.33;100.00
29815;BME280;16708;50.426;7.664;2023-04-25T09:03:18;983.64;;;8.90;100.00
29815;BME280;16708;50.426;7.664;2023-04-25T09:08:12;983.72;;;8.29;100.00
29815;BME280;16708;50.426;7.664;2023-04-25T09:13:05;983.96;;;7.73;100.00
29815;BME280;16708;50.426;7.664;2023-04-25T09:22:53;984.05;;;7.88;100.00
29815;BME280;16708;50.426;7.664;2023-04-25T09:27:46;984.11;;;8.15;100.00
29815;BME280;16708;50.426;7.664;2023-04-25T09:32:41;984.15;;;8.08;100.00
29815;BME280;16708;50.426;7.664;2023-04-25T09:37:33;984.27;;;8.21;100.00
29815;BME280;16708;50.426;7.664;2023-04-25T09:42:26;984.24;;;8.02;100.00
29815;BME280;16708;50.426;7.664;2023-04-25T09:47:20;984.32;;;7.82;100.00
29815;BME280;16708;50.426;7.664;2023-04-25T09:52:14;984.50;;;8.05;100.00
29815;BME280;16708;50.426;7.664;2023-04-25T09:57:09;984.46;;;8.44;100.00
29815;BME280;16708;50.426;7.664;2023-04-25T10:02:03;984.48;;;9.12;100.00
29815;BME280;16708;50.426;7.664;2023-04-25T10:06:58;984.52;;;9.54;96.85
29815;BME280;16708;50.426;7.664;2023-04-25T10:11:53;984.44;;;10.13;94.22
29815;BME280;16708;50.426;7.664;2023-04-25T10:16:46;984.54;;;9.40;73.85
29815;BME280;16708;50.426;7.664;2023-04-25T10:21:52;984.53;;;10.05;66.38
29815;BME280;16708;50.426;7.664;2023-04-25T10:26:35;984.45;;;10.32;64.59
29815;BME280;16708;50.426;7.664;2023-04-25T10:41:20;984.61;;;12.00;54.54
29815;BME280;16708;50.426;7.664;2023-04-25T10:46:15;984.62;;;10.02;64.14
29815;BME280;16708;50.426;7.664;2023-04-25T10:51:09;984.67;;;9.58;78.37
29815;BME280;16708;50.426;7.664;2023-04-25T10:56:01;984.85;;;8.96;78.53
29815;BME280;16708;50.426;7.664;2023-04-25T11:00:55;984.87;;;8.24;84.84
29815;BME280;16708;50.426;7.664;2023-04-25T11:05:49;984.95;;;8.06;97.66
29815;BME280;16708;50.426;7.664;2023-04-25T11:10:42;984.90;;;7.94;98.67
29815;BME280;16708;50.426;7.664;2023-04-25T11:15:36;985.02;;;8.20;99.87
29815;BME280;16708;50.426;7.664;2023-04-25T11:20:31;985.07;;;9.19;90.26
29815;BME280;16708;50.426;7.664;2023-04-25T11:30:20;985.00;;;9.04;83.26
29815;BME280;16708;50.426;7.664;2023-04-25T11:35:11;984.96;;;9.01;81.99
29815;BME280;16708;50.426;7.664;2023-04-25T11:40:05;985.02;;;9.16;76.81
29815;BME280;16708;50.426;7.664;2023-04-25T11:44:59;984.94;;;9.93;76.67
29815;BME280;16708;50.426;7.664;2023-04-25T11:49:54;984.80;;;10.69;63.45
29815;BME280;16708;50.426;7.664;2023-04-25T11:54:48;984.76;;;11.82;57.04
29815;BME280;16708;50.426;7.664;2023-04-25T12:04:39;984.85;;;12.07;56.73
29815;BME280;16708;50.426;7.664;2023-04-25T12:09:34;984.99;;;11.17;50.46
29815;BME280;16708;50.426;7.664;2023-04-25T12:24:13;985.13;;;8.98;66.16
29815;BME280;16708;50.426;7.664;2023-04-25T12:29:04;985.10;;;8.94;68.66
29815;BME280;16708;50.426;7.664;2023-04-25T12:33:56;985.21;;;9.23;64.00
29815;BME280;16708;50.426;7.664;2023-04-25T12:38:50;985.25;;;13.40;50.39
29815;BME280;16708;50.426;7.664;2023-04-25T12:43:46;985.33;;;14.10;45.37
29815;BME280;16708;50.426;7.664;2023-04-25T12:48:42;985.22;;;12.66;44.63
29815;BME280;16708;50.426;7.664;2023-04-25T12:53:36;985.21;;;11.43;46.53
29815;BME280;16708;50.426;7.664;2023-04-25T12:58:29;985.19;;;10.96;48.80
29815;BME280;16708;50.426;7.664;2023-04-25T13:03:22;985.25;;;10.64;51.25
29815;BME280;16708;50.426;7.664;2023-04-25T13:08:16;985.39;;;10.19;57.39
29815;BME280;16708;50.426;7.664;2023-04-25T13:13:10;985.37;;;9.20;54.54
29815;BME280;16708;50.426;7.664;2023-04-25T13:18:04;985.50;;;9.01;58.38
29815;BME280;16708;50.426;7.664;2023-04-25T13:22:55;985.53;;;9.25;60.84
29815;BME280;16708;50.426;7.664;2023-04-25T13:27:49;985.62;;;9.30;66.84
29815;BME280;16708;50.426;7.664;2023-04-25T13:32:44;985.65;;;9.25;63.56
29815;BME280;16708;50.426;7.664;2023-04-25T13:37:38;985.59;;;9.70;55.87
29815;BME280;16708;50.426;7.664;2023-04-25T13:42:32;985.66;;;14.70;42.75
29815;BME280;16708;50.426;7.664;2023-04-25T13:47:29;985.56;;;14.64;41.45
29815;BME280;16708;50.426;7.664;2023-04-25T13:52:25;985.58;;;13.42;44.63
29815;BME280;16708;50.426;7.664;2023-04-25T13:57:19;985.45;;;12.51;45.99
29815;BME280;16708;50.426;7.664;2023-04-25T14:02:13;985.54;;;12.11;43.67
29815;BME280;16708;50.426;7.664;2023-04-25T14:07:05;985.51;;;12.38;42.49
29815;BME280;16708;50.426;7.664;2023-04-25T14:11:59;985.47;;;11.59;46.35
29815;BME280;16708;50.426;7.664;2023-04-25T14:16:53;985.55;;;11.95;45.37
29815;BME280;16708;50.426;7.664;2023-04-25T14:21:47;985.49;;;12.59;42.93
29815;BME280;16708;50.426;7.664;2023-04-25T14:26:41;985.48;;;11.90;42.65
29815;BME280;16708;50.426;7.664;2023-04-25T14:31:36;985.46;;;12.07;45.44
29815;BME280;16708;50.426;7.664;2023-04-25T14:36:29;985.58;;;10.86;45.47
29815;BME280;16708;50.426;7.664;2023-04-25T14:41:23;985.60;;;10.59;44.88
29815;BME280;16708;50.426;7.664;2023-04-25T14:46:17;985.60;;;10.40;47.13
29815;BME280;16708;50.426;7.664;2023-04-25T14:51:11;985.59;;;10.61;45.91
29815;BME280;16708;50.426;7.664;2023-04-25T14:56:04;985.69;;;10.34;46.40
29815;BME280;16708;50.426;7.664;2023-04-25T15:00:59;985.75;;;11.06;46.60
29815;BME280;16708;50.426;7.664;2023-04-25T15:05:53;985.79;;;11.01;46.33
29815;BME280;16708;50.426;7.664;2023-04-25T15:10:47;985.80;;;9.90;48.71
29815;BME280;16708;50.426;7.664;2023-04-25T15:15:41;985.83;;;10.00;50.67
29815;BME280;16708;50.426;7.664;2023-04-25T15:20:35;985.89;;;9.58;52.29
29815;BME280;16708;50.426;7.664;2023-04-25T15:25:28;985.93;;;9.54;52.68
29815;BME280;16708;50.426;7.664;2023-04-25T15:30:22;985.98;;;9.35;52.21
29815;BME280;16708;50.426;7.664;2023-04-25T15:35:15;986.00;;;9.28;52.13
29815;BME280;16708;50.426;7.664;2023-04-25T15:40:10;986.04;;;9.29;49.79
29815;BME280;16708;50.426;7.664;2023-04-25T15:45:04;985.95;;;9.91;49.06
29815;BME280;16708;50.426;7.664;2023-04-25T15:49:57;985.87;;;10.02;48.05
29815;BME280;16708;50.426;7.664;2023-04-25T15:54:51;985.93;;;10.41;45.93
29815;BME280;16708;50.426;7.664;2023-04-25T15:59:45;985.94;;;10.38;45.41
29815;BME280;16708;50.426;7.664;2023-04-25T16:04:39;985.98;;;10.37;45.60
29815;BME280;16708;50.426;7.664;2023-04-25T16:09:33;985.96;;;12.76;40.17
29815;BME280;16708;50.426;7.664;2023-04-25T16:14:28;986.03;;;17.75;31.81
29815;BME280;16708;50.426;7.664;2023-04-25T16:19:24;986.07;;;17.13;31.45
29815;BME280;16708;50.426;7.664;2023-04-25T16:24:19;986.05;;;17.77;31.92
29815;BME280;16708;50.426;7.664;2023-04-25T16:29:14;986.04;;;15.57;33.59
29815;BME280;16708;50.426;7.664;2023-04-25T16:34:07;986.03;;;15.82;33.38
29815;BME280;16708;50.426;7.664;2023-04-25T16:39:01;986.05;;;15.26;33.83
29815;BME280;16708;50.426;7.664;2023-04-25T16:43:55;986.07;;;12.84;40.48
29815;BME280;16708;50.426;7.664;2023-04-25T16:48:49;986.03;;;11.25;43.40
29815;BME280;16708;50.426;7.664;2023-04-25T16:53:41;985.95;;;11.29;44.28
29815;BME280;16708;50.426;7.664;2023-04-25T16:58:34;986.09;;;13.86;39.72
29815;BME280;16708;50.426;7.664;2023-04-25T17:03:27;986.13;;;15.71;37.50
29815;BME280;16708;50.426;7.664;2023-04-25T17:08:19;986.13;;;12.02;40.80
29815;BME280;16708;50.426;7.664;2023-04-25T17:13:13;986.15;;;10.50;45.05
29815;BME280;16708;50.426;7.664;2023-04-25T17:18:06;986.25;;;10.36;47.40
29815;BME280;16708;50.426;7.664;2023-04-25T17:23:00;986.23;;;11.27;44.86
29815;BME280;16708;50.426;7.664;2023-04-25T17:27:54;986.31;;;10.97;47.19
29815;BME280;16708;50.426;7.664;2023-04-25T17:32:48;986.30;;;9.65;47.45
29815;BME280;16708;50.426;7.664;2023-04-25T17:37:41;986.44;;;9.24;50.02
29815;BME280;16708;50.426;7.664;2023-04-25T17:42:34;986.42;;;9.07;47.66
29815;BME280;16708;50.426;7.664;2023-04-25T17:47:27;986.51;;;9.32;47.69
29815;BME280;16708;50.426;7.664;2023-04-25T17:52:21;986.61;;;10.93;42.33
29815;BME280;16708;50.426;7.664;2023-04-25T17:57:15;986.57;;;10.46;42.84
29815;BME280;16708;50.426;7.664;2023-04-25T18:02:10;986.55;;;9.33;46.16
29815;BME280;16708;50.426;7.664;2023-04-25T18:07:02;986.68;;;8.82;47.24
29815;BME280;16708;50.426;7.664;2023-04-25T18:11:56;986.73;;;8.52;49.48
29815;BME280;16708;50.426;7.664;2023-04-25T18:16:50;986.78;;;8.48;55.89
29815;BME280;16708;50.426;7.664;2023-04-25T18:21:43;986.81;;;8.18;58.54
29815;BME280;16708;50.426;7.664;2023-04-25T18:26:37;986.83;;;7.86;62.14
29815;BME280;16708;50.426;7.664;2023-04-25T18:31:31;986.92;;;7.74;61.30
29815;BME280;16708;50.426;7.664;2023-04-25T18:36:25;986.99;;;7.53;63.89
29815;BME280;16708;50.426;7.664;2023-04-25T18:41:19;987.06;;;7.89;68.12
29815;BME280;16708;50.426;7.664;2023-04-25T18:46:13;987.06;;;8.11;59.26
29815;BME280;16708;50.426;7.664;2023-04-25T18:51:07;987.19;;;7.80;64.02
29815;BME280;16708;50.426;7.664;2023-04-25T18:56:01;987.25;;;7.58;64.76
29815;BME280;16708;50.426;7.664;2023-04-25T19:00:55;987.34;;;7.45;70.35
29815;BME280;16708;50.426;7.664;2023-04-25T19:05:49;987.37;;;7.43;76.14
29815;BME280;16708;50.426;7.664;2023-04-25T19:10:43;987.33;;;7.33;81.41
29815;BME280;16708;50.426;7.664;2023-04-25T19:15:37;987.47;;;7.24;87.04
29815;BME280;16708;50.426;7.664;2023-04-25T19:20:30;987.53;;;7.18;85.42
29815;BME280;16708;50.426;7.664;2023-04-25T19:25:23;987.55;;;7.15;90.26
29815;BME280;16708;50.426;7.664;2023-04-25T19:30:17;987.47;;;7.12;88.11
29815;BME280;16708;50.426;7.664;2023-04-25T19:35:11;987.54;;;7.07;88.36
29815;BME280;16708;50.426;7.664;2023-04-25T19:40:05;987.63;;;7.13;88.03
29815;BME280;16708;50.426;7.664;2023-04-25T19:44:59;987.60;;;7.16;88.21
29815;BME280;16708;50.426;7.664;2023-04-25T19:49:54;987.58;;;7.12;91.36
29815;BME280;16708;50.426;7.664;2023-04-25T19:54:46;987.58;;;7.09;92.30
29815;BME280;16708;50.426;7.664;2023-04-25T19:59:40;987.63;;;7.04;92.85
29815;BME280;16708;50.426;7.664;2023-04-25T20:04:34;987.65;;;6.99;93.86
29815;BME280;16708;50.426;7.664;2023-04-25T20:09:27;987.74;;;6.93;94.42
29815;BME280;16708;50.426;7.664;2023-04-25T20:14:21;987.75;;;6.92;99.04
29815;BME280;16708;50.426;7.664;2023-04-25T20:19:18;987.79;;;6.89;100.00
29815;BME280;16708;50.426;7.664;2023-04-25T20:24:09;987.86;;;6.79;100.00
29815;BME280;16708;50.426;7.664;2023-04-25T20:29:03;987.81;;;6.63;100.00
29815;BME280;16708;50.426;7.664;2023-04-25T20:33:57;987.89;;;6.51;100.00
29815;BME280;16708;50.426;7.664;2023-04-25T20:38:51;987.95;;;6.43;100.00
29815;BME280;16708;50.426;7.664;2023-04-25T20:43:45;987.85;;;6.31;100.00
29815;BME280;16708;50.426;7.664;2023-04-25T20:48:38;988.01;;;6.30;100.00
29815;BME280;16708;50.426;7.664;2023-04-25T20:53:32;988.02;;;6.20;100.00
29815;BME280;16708;50.426;7.664;2023-04-25T20:58:26;987.95;;;5.96;100.00
29815;BME280;16708;50.426;7.664;2023-04-25T21:03:20;987.95;;;5.78;100.00
29815;BME280;16708;50.426;7.664;2023-04-25T21:08:14;987.96;;;5.63;100.00
29815;BME280;16708;50.426;7.664;2023-04-25T21:13:08;987.94;;;5.40;100.00
29815;BME280;16708;50.426;7.664;2023-04-25T21:18:02;987.89;;;5.12;100.00
29815;BME280;16708;50.426;7.664;2023-04-25T21:22:56;987.94;;;4.71;100.00
29815;BME280;16708;50.426;7.664;2023-04-25T21:27:50;987.93;;;4.50;100.00
29815;BME280;16708;50.426;7.664;2023-04-25T21:32:44;988.03;;;4.36;100.00
29815;BME280;16708;50.426;7.664;2023-04-25T21:37:38;988.08;;;4.08;100.00
29815;BME280;16708;50.426;7.664;2023-04-25T21:42:31;988.02;;;3.95;100.00
29815;BME280;16708;50.426;7.664;2023-04-25T21:47:25;988.17;;;3.84;100.00
29815;BME280;16708;50.426;7.664;2023-04-25T21:52:19;988.07;;;3.74;100.00
29815;BME280;16708;50.426;7.664;2023-04-25T21:57:13;988.21;;;3.69;100.00
29815;BME280;16708;50.426;7.664;2023-04-25T22:02:07;988.23;;;3.61;100.00
29815;BME280;16708;50.426;7.664;2023-04-25T22:07:01;988.33;;;3.54;100.00
29815;BME280;16708;50.426;7.664;2023-04-25T22:11:54;988.30;;;3.47;100.00
29815;BME280;16708;50.426;7.664;2023-04-25T22:16:45;988.32;;;3.34;100.00
29815;BME280;16708;50.426;7.664;2023-04-25T22:21:37;988.45;;;3.21;100.00
29815;BME280;16708;50.426;7.664;2023-04-25T22:26:30;988.49;;;3.14;100.00
29815;BME280;16708;50.426;7.664;2023-04-25T22:31:24;988.55;;;2.98;100.00
29815;BME280;16708;50.426;7.664;2023-04-25T22:36:19;988.68;;;2.85;100.00
29815;BME280;16708;50.426;7.664;2023-04-25T22:41:10;988.68;;;2.67;100.00
29815;BME280;16708;50.426;7.664;2023-04-25T22:46:04;988.70;;;2.58;100.00
29815;BME280;16708;50.426;7.664;2023-04-25T22:50:57;988.72;;;2.55;100.00
29815;BME280;16708;50.426;7.664;2023-04-25T22:55:51;988.78;;;2.60;100.00
29815;BME280;16708;50.426;7.664;2023-04-25T23:00:46;988.86;;;2.51;100.00
29815;BME280;16708;50.426;7.664;2023-04-25T23:05:40;988.80;;;2.51;100.00
29815;BME280;16708;50.426;7.664;2023-04-25T23:10:34;988.80;;;2.42;100.00
29815;BME280;16708;50.426;7.664;2023-04-25T23:15:27;988.89;;;2.30;100.00
29815;BME280;16708;50.426;7.664;2023-04-25T23:20:22;988.85;;;2.25;100.00
29815;BME280;16708;50.426;7.664;2023-04-25T23:25:16;988.85;;;2.24;100.00
29815;BME280;16708;50.426;7.664;2023-04-25T23:30:10;988.88;;;2.32;100.00
29815;BME280;16708;50.426;7.664;2023-04-25T23:35:04;988.91;;;2.40;100.00
29815;BME280;16708;50.426;7.664;2023-04-25T23:39:58;988.93;;;2.35;100.00
29815;BME280;16708;50.426;7.664;2023-04-25T23:44:52;988.91;;;2.37;100.00
29815;BME280;16708;50.426;7.664;2023-04-25T23:49:46;988.99;;;2.45;100.00
29815;BME280;16708;50.426;7.664;2023-04-25T23:54:39;988.96;;;2.55;100.00
29815;BME280;16708;50.426;7.664;2023-04-25T23:59:33;989.09;;;2.65;100.00
